createdAt,value
2022-09-07T00:01:11.083Z,100.00
2022-09-07T00:03:39.781Z,100.00
2022-09-07T00:06:12.340Z,100.00
2022-09-07T00:08:42.401Z,100.00
2022-09-07T00:11:14.238Z,100.00
2022-09-07T00:13:45.824Z,100.00
2022-09-07T00:16:17.490Z,100.00
2022-09-07T00:18:46.659Z,100.00
2022-09-07T00:21:16.253Z,100.00
2022-09-07T00:23:44.517Z,100.00
2022-09-07T00:26:14.409Z,100.00
2022-09-07T00:28:50.918Z,100.00
2022-09-07T00:31:22.963Z,100.00
2022-09-07T00:33:52.605Z,100.00
2022-09-07T00:36:22.709Z,100.00
2022-09-07T00:38:51.776Z,100.00
2022-09-07T00:41:21.553Z,100.00
2022-09-07T00:43:52.287Z,100.00
2022-09-07T00:46:23.895Z,100.00
2022-09-07T00:49:00.291Z,100.00
2022-09-07T00:51:33.671Z,100.00
2022-09-07T00:54:03.789Z,100.00
2022-09-07T00:56:35.976Z,100.00
2022-09-07T00:59:07.600Z,100.00
2022-09-07T01:01:40.729Z,100.00
2022-09-07T01:04:09.456Z,100.00
2022-09-07T01:06:39.558Z,100.00
2022-09-07T01:09:12.013Z,100.00
2022-09-07T01:11:41.341Z,100.00
2022-09-07T01:14:15.681Z,100.00
2022-09-07T01:17:01.562Z,100.00
2022-09-07T01:20:00.537Z,100.00
2022-09-07T01:22:53.397Z,100.00
2022-09-07T01:25:41.442Z,100.00
2022-09-07T01:28:17.933Z,100.00
2022-09-07T01:30:55.993Z,100.00
2022-09-07T01:33:38.433Z,100.00
2022-09-07T01:36:15.689Z,100.00
2022-09-07T01:38:47.591Z,100.00
2022-09-07T01:41:19.561Z,100.00
2022-09-07T01:44:00.418Z,100.00
2022-09-07T01:46:36.240Z,100.00
2022-09-07T01:49:13.081Z,100.00
2022-09-07T01:51:49.755Z,100.00
2022-09-07T01:54:23.508Z,100.00
2022-09-07T01:56:56.976Z,100.00
2022-09-07T01:59:33.818Z,100.00
2022-09-07T02:02:06.884Z,100.00
2022-09-07T02:04:38.799Z,100.00
2022-09-07T02:07:13.917Z,100.00
2022-09-07T02:09:45.224Z,100.00
2022-09-07T02:12:23.161Z,100.00
2022-09-07T02:14:57.625Z,100.00
2022-09-07T02:17:32.621Z,100.00
2022-09-07T02:20:11.158Z,100.00
2022-09-07T02:22:44.783Z,100.00
2022-09-07T02:25:18.657Z,100.00
2022-09-07T02:27:48.606Z,100.00
2022-09-07T02:30:18.793Z,100.00
2022-09-07T02:32:46.924Z,100.00
2022-09-07T02:35:15.801Z,100.00
2022-09-07T02:37:45.363Z,100.00
2022-09-07T02:40:16.007Z,100.00
2022-09-07T02:42:46.514Z,100.00
2022-09-07T02:45:16.750Z,100.00
2022-09-07T02:48:11.045Z,100.00
2022-09-07T02:50:55.437Z,100.00
2022-09-07T02:53:37.738Z,100.00
2022-09-07T02:56:19.039Z,100.00
2022-09-07T02:58:53.397Z,100.00
2022-09-07T03:01:36.617Z,100.00
2022-09-07T03:04:13.355Z,100.00
2022-09-07T03:06:49.225Z,100.00
2022-09-07T03:09:20.970Z,100.00
2022-09-07T03:11:50.758Z,100.00
2022-09-07T03:14:21.535Z,100.00
2022-09-07T03:16:51.841Z,100.00
2022-09-07T03:19:21.268Z,100.00
2022-09-07T03:21:49.482Z,100.00
2022-09-07T03:24:17.596Z,100.00
2022-09-07T03:26:49.317Z,100.00
2022-09-07T03:29:17.535Z,100.00
2022-09-07T03:31:48.220Z,100.00
2022-09-07T03:34:18.467Z,100.00
2022-09-07T03:36:50.589Z,100.00
2022-09-07T03:39:20.878Z,100.00
2022-09-07T03:41:49.253Z,100.00
2022-09-07T03:44:17.377Z,100.00
2022-09-07T03:46:45.555Z,100.00
2022-09-07T03:49:16.358Z,100.00
2022-09-07T03:51:44.423Z,100.00
2022-09-07T03:54:14.082Z,100.00
2022-09-07T03:56:42.270Z,100.00
2022-09-07T03:59:10.552Z,100.00
2022-09-07T04:01:41.655Z,100.00
2022-09-07T04:04:10.168Z,100.00
2022-09-07T04:06:38.232Z,100.00
2022-09-07T04:09:10.239Z,100.00
2022-09-07T04:14:41.445Z,100.00
2022-09-07T04:17:09.610Z,100.00
2022-09-07T04:19:37.896Z,100.00
2022-09-07T04:22:06.068Z,100.00
2022-09-07T04:24:34.451Z,100.00
2022-09-07T04:27:05.117Z,100.00
2022-09-07T04:29:33.832Z,100.00
2022-09-07T04:32:05.808Z,100.00
2022-09-07T04:34:34.194Z,100.00
2022-09-07T04:37:04.719Z,100.00
2022-09-07T04:39:32.961Z,100.00
2022-09-07T04:42:01.040Z,100.00
2022-09-07T04:44:29.240Z,100.00
2022-09-07T04:46:57.262Z,100.00
2022-09-07T04:49:26.720Z,100.00
2022-09-07T04:51:57.154Z,100.00
2022-09-07T04:54:26.447Z,100.00
2022-09-07T04:56:54.689Z,100.00
2022-09-07T04:59:24.939Z,100.00
2022-09-07T05:01:55.257Z,100.00
2022-09-07T05:04:30.214Z,100.00
2022-09-07T05:06:58.455Z,100.00
2022-09-07T05:09:28.564Z,100.00
2022-09-07T05:11:56.768Z,100.00
2022-09-07T05:14:24.814Z,100.00
2022-09-07T05:16:56.187Z,100.00
2022-09-07T05:19:25.097Z,100.00
2022-09-07T05:21:54.863Z,100.00
2022-09-07T05:24:22.981Z,100.00
2022-09-07T05:26:51.357Z,100.00
2022-09-07T05:32:10.416Z,100.00
2022-09-07T05:34:38.529Z,100.00
2022-09-07T05:37:08.530Z,100.00
2022-09-07T05:39:44.145Z,100.00
2022-09-07T05:42:12.621Z,100.00
2022-09-07T05:47:16.469Z,100.00
2022-09-07T05:49:47.031Z,100.00
2022-09-07T05:52:16.646Z,100.00
2022-09-07T05:54:44.735Z,100.00
2022-09-07T05:57:15.926Z,100.00
2022-09-07T05:59:44.521Z,100.00
2022-09-07T06:02:16.052Z,100.00
2022-09-07T06:04:44.523Z,100.00
2022-09-07T06:07:22.506Z,100.00
2022-09-07T06:12:44.355Z,100.00
2022-09-07T06:15:15.242Z,100.00
2022-09-07T06:17:45.559Z,100.00
2022-09-07T06:20:13.720Z,100.00
2022-09-07T06:22:42.164Z,100.00
2022-09-07T06:25:13.669Z,100.00
2022-09-07T06:27:44.133Z,100.00
2022-09-07T06:30:12.667Z,100.00
2022-09-07T06:35:11.291Z,100.00
2022-09-07T06:37:39.487Z,100.00
2022-09-07T06:40:10.553Z,100.00
2022-09-07T06:42:40.726Z,100.00
2022-09-07T06:45:12.837Z,100.00
2022-09-07T06:47:46.032Z,100.00
2022-09-07T06:50:14.652Z,100.00
2022-09-07T06:55:31.099Z,100.00
2022-09-07T06:58:03.364Z,100.00
2022-09-07T07:00:34.064Z,100.00
2022-09-07T07:03:02.221Z,100.00
2022-09-07T07:05:31.673Z,100.00
2022-09-07T07:08:01.973Z,100.00
2022-09-07T07:10:40.316Z,99.11
2022-09-07T07:13:10.187Z,97.82
2022-09-07T07:15:38.315Z,90.67
2022-09-07T07:18:20.445Z,89.07
2022-09-07T07:20:52.077Z,89.05
2022-09-07T07:23:20.276Z,98.94
2022-09-07T07:25:48.358Z,100.00
2022-09-07T07:31:10.410Z,100.00
2022-09-07T07:33:40.579Z,100.00
2022-09-07T07:36:11.511Z,100.00
2022-09-07T07:44:21.412Z,100.00
2022-09-07T07:46:52.333Z,100.00
2022-09-07T07:49:20.979Z,100.00
2022-09-07T07:54:39.431Z,100.00
2022-09-07T07:57:08.008Z,96.28
2022-09-07T07:59:37.678Z,94.55
2022-09-07T08:02:06.877Z,89.62
2022-09-07T08:04:35.923Z,85.01
2022-09-07T08:07:10.169Z,83.74
2022-09-07T08:09:40.711Z,75.44
2022-09-07T08:12:10.099Z,71.74
2022-09-07T08:14:41.174Z,70.17
2022-09-07T08:17:11.080Z,65.18
2022-09-07T08:19:39.077Z,65.44
2022-09-07T08:22:07.754Z,66.89
2022-09-07T08:24:38.244Z,64.96
2022-09-07T08:27:06.542Z,64.33
2022-09-07T08:29:35.424Z,63.87
2022-09-07T08:32:06.498Z,58.54
2022-09-07T08:34:36.605Z,56.88
2022-09-07T08:37:04.971Z,55.93
2022-09-07T08:39:33.027Z,53.33
2022-09-07T08:42:13.840Z,54.63
2022-09-07T08:44:48.836Z,53.31
2022-09-07T08:47:28.459Z,53.54
2022-09-07T08:50:04.189Z,54.69
2022-09-07T08:52:42.376Z,60.68
2022-09-07T08:55:18.324Z,59.74
2022-09-07T08:57:52.554Z,59.50
2022-09-07T09:00:22.549Z,59.68
2022-09-07T09:05:48.999Z,58.96
2022-09-07T09:08:27.517Z,55.79
2022-09-07T09:11:04.266Z,52.99
2022-09-07T09:15:53.762Z,50.77
2022-09-07T09:18:36.194Z,51.60
2022-09-07T09:21:04.227Z,51.33
2022-09-07T09:23:36.611Z,56.80
2022-09-07T09:26:08.594Z,57.17
2022-09-07T09:28:37.037Z,57.40
2022-09-07T09:31:18.572Z,57.74
2022-09-07T09:34:11.436Z,56.77
2022-09-07T09:36:46.046Z,56.77
2022-09-07T09:39:34.538Z,57.86
2022-09-07T09:42:17.382Z,54.97
2022-09-07T09:44:47.059Z,54.08
2022-09-07T09:47:30.610Z,50.67
2022-09-07T09:50:00.981Z,48.31
2022-09-07T09:52:43.554Z,45.84
2022-09-07T09:55:34.328Z,47.11
2022-09-07T10:06:23.521Z,43.02
2022-09-07T10:08:58.617Z,43.05
2022-09-07T10:14:35.077Z,38.90
2022-09-07T10:17:13.226Z,38.61
2022-09-07T10:19:44.167Z,38.21
2022-09-07T10:22:25.683Z,40.40
2022-09-07T10:24:53.827Z,41.58
2022-09-07T10:27:30.685Z,39.31
2022-09-07T10:29:58.896Z,38.86
2022-09-07T10:32:36.262Z,38.82
2022-09-07T10:35:16.215Z,39.27
2022-09-07T10:37:57.124Z,37.25
2022-09-07T10:40:32.819Z,34.47
2022-09-07T10:43:30.205Z,38.04
2022-09-07T10:49:24.739Z,37.35
2022-09-07T10:52:04.315Z,35.10
2022-09-07T10:54:40.704Z,39.33
2022-09-07T10:57:39.045Z,37.36
2022-09-07T11:00:13.372Z,36.68
2022-09-07T11:06:02.805Z,36.60
2022-09-07T11:14:29.415Z,40.18
2022-09-07T11:17:05.086Z,39.22
2022-09-07T11:19:38.844Z,36.87
2022-09-07T11:22:20.739Z,37.45
2022-09-07T11:27:47.746Z,34.79
2022-09-07T11:30:20.727Z,35.96
2022-09-07T11:33:02.146Z,33.78
2022-09-07T11:35:36.141Z,32.93
2022-09-07T11:38:14.297Z,33.65
2022-09-07T11:40:59.610Z,33.32
2022-09-07T11:43:32.885Z,31.71
2022-09-07T11:46:05.633Z,32.90
2022-09-07T11:48:43.006Z,33.72
2022-09-07T11:51:18.673Z,33.44
2022-09-07T11:53:51.573Z,34.26
2022-09-07T11:56:27.915Z,34.12
2022-09-07T11:59:12.826Z,35.68
2022-09-07T12:01:51.602Z,33.31
2022-09-07T12:04:40.334Z,32.88
2022-09-07T12:07:29.690Z,32.20
2022-09-07T12:10:34.046Z,33.20
2022-09-07T12:13:20.378Z,32.68
2022-09-07T12:15:54.223Z,35.59
2022-09-07T12:18:36.100Z,36.93
2022-09-07T12:21:04.671Z,39.30
2022-09-07T12:23:33.744Z,39.10
2022-09-07T12:26:39.667Z,38.03
2022-09-07T12:29:24.020Z,39.27
2022-09-07T12:31:58.798Z,38.92
2022-09-07T12:34:50.645Z,41.69
2022-09-07T12:37:38.841Z,42.57
2022-09-07T12:40:45.205Z,40.49
2022-09-07T12:43:34.414Z,41.91
2022-09-07T12:46:18.384Z,41.06
2022-09-07T12:48:59.043Z,41.21
2022-09-07T12:54:35.334Z,43.71
2022-09-07T12:57:33.645Z,43.93
2022-09-07T13:00:17.179Z,42.89
2022-09-07T13:07:01.729Z,42.59
2022-09-07T13:09:38.412Z,42.36
2022-09-07T13:15:42.687Z,42.71
2022-09-07T13:18:28.261Z,41.99
2022-09-07T13:21:31.665Z,41.39
2022-09-07T13:24:46.916Z,41.67
2022-09-07T13:27:44.702Z,43.87
2022-09-07T13:30:26.114Z,44.71
2022-09-07T13:33:33.098Z,44.69
2022-09-07T13:36:05.096Z,43.43
2022-09-07T13:38:37.423Z,44.06
2022-09-07T13:41:08.931Z,42.96
2022-09-07T13:43:39.287Z,41.98
2022-09-07T13:46:17.850Z,41.64
2022-09-07T13:48:50.158Z,40.60
2022-09-07T13:51:25.497Z,41.60
2022-09-07T13:54:03.680Z,41.16
2022-09-07T13:56:46.238Z,42.26
2022-09-07T13:59:20.619Z,42.82
2022-09-07T14:01:50.253Z,43.18
2022-09-07T14:04:25.171Z,43.04
2022-09-07T14:07:03.973Z,44.52
2022-09-07T14:09:33.779Z,44.58
2022-09-07T14:12:02.410Z,44.53
2022-09-07T14:14:33.244Z,44.88
2022-09-07T14:17:05.642Z,46.25
2022-09-07T14:19:39.324Z,46.28
2022-09-07T14:22:14.030Z,45.03
2022-09-07T14:24:47.996Z,46.71
2022-09-07T14:27:23.834Z,46.59
2022-09-07T14:29:52.813Z,47.14
2022-09-07T14:32:24.715Z,47.00
2022-09-07T14:34:55.669Z,47.13
2022-09-07T14:37:29.453Z,46.87
2022-09-07T14:39:58.687Z,48.14
2022-09-07T14:42:27.288Z,48.92
2022-09-07T14:45:21.075Z,49.49
2022-09-07T14:47:52.144Z,49.31
2022-09-07T14:50:25.759Z,48.48
2022-09-07T14:55:47.396Z,49.29
2022-09-07T14:58:25.444Z,49.73
2022-09-07T15:03:58.269Z,48.81
2022-09-07T15:09:35.957Z,49.62
2022-09-07T15:12:18.975Z,48.45
2022-09-07T15:14:50.208Z,46.92
2022-09-07T15:20:35.671Z,46.34
2022-09-07T15:23:04.922Z,45.88
2022-09-07T15:25:36.237Z,46.01
2022-09-07T15:28:05.286Z,44.89
2022-09-07T15:30:36.692Z,45.48
2022-09-07T15:33:05.080Z,46.09
2022-09-07T15:35:32.995Z,46.89
2022-09-07T15:38:02.313Z,48.92
2022-09-07T15:40:37.574Z,48.72
2022-09-07T15:43:20.094Z,49.64
2022-09-07T15:45:51.265Z,50.07
2022-09-07T15:48:21.202Z,51.64
2022-09-07T15:50:49.797Z,51.28
2022-09-07T15:56:07.382Z,51.54
2022-09-07T15:58:37.417Z,51.23
2022-09-07T16:03:55.627Z,52.13
2022-09-07T16:06:24.826Z,51.85
2022-09-07T16:08:53.600Z,51.69
2022-09-07T16:11:23.815Z,52.55
2022-09-07T16:14:01.717Z,53.77
2022-09-07T16:19:21.144Z,54.30
2022-09-07T16:21:49.322Z,55.14
2022-09-07T16:24:17.396Z,55.22
2022-09-07T16:26:47.585Z,56.55
2022-09-07T16:29:17.874Z,56.62
2022-09-07T16:34:34.054Z,57.64
2022-09-07T16:37:02.037Z,57.98
2022-09-07T16:39:32.440Z,58.16
2022-09-07T16:42:00.657Z,57.93
2022-09-07T16:44:30.012Z,59.21
2022-09-07T16:47:00.316Z,59.00
2022-09-07T16:49:28.799Z,59.43
2022-09-07T16:51:56.800Z,59.62
2022-09-07T16:54:25.010Z,61.11
2022-09-07T16:56:53.560Z,61.83
2022-09-07T16:59:26.331Z,61.22
2022-09-07T17:01:56.734Z,63.64
2022-09-07T17:04:25.320Z,61.86
2022-09-07T17:06:55.816Z,62.61
2022-09-07T17:09:26.887Z,63.18
2022-09-07T17:11:55.129Z,64.13
2022-09-07T17:14:23.462Z,64.22
2022-09-07T17:16:51.659Z,65.11
2022-09-07T17:19:29.403Z,65.51
2022-09-07T17:22:00.705Z,66.10
2022-09-07T17:24:32.187Z,66.59
2022-09-07T17:27:01.486Z,67.63
2022-09-07T17:29:30.720Z,67.65
2022-09-07T17:34:54.029Z,68.96
2022-09-07T17:37:22.281Z,69.62
2022-09-07T17:39:50.269Z,70.21
2022-09-07T17:42:18.428Z,71.15
2022-09-07T17:44:46.418Z,70.61
2022-09-07T17:47:14.472Z,71.72
2022-09-07T17:49:42.901Z,71.72
2022-09-07T17:52:12.277Z,72.95
2022-09-07T17:54:43.642Z,73.85
2022-09-07T17:57:11.891Z,72.98
2022-09-07T18:05:43.885Z,73.51
2022-09-07T18:08:14.635Z,73.52
2022-09-07T18:13:36.226Z,75.27
2022-09-07T18:16:12.324Z,75.27
2022-09-07T18:18:42.784Z,75.49
2022-09-07T18:21:17.540Z,74.77
2022-09-07T18:23:48.661Z,75.07
2022-09-07T18:26:16.708Z,75.25
2022-09-07T18:31:35.542Z,75.96
2022-09-07T18:34:03.861Z,76.67
2022-09-07T18:36:33.989Z,77.00
2022-09-07T18:39:03.400Z,78.28
2022-09-07T18:41:34.507Z,79.40
2022-09-07T18:44:03.073Z,82.29
2022-09-07T18:46:34.770Z,83.63
2022-09-07T18:49:03.105Z,82.79
2022-09-07T18:52:51.630Z,82.96
2022-09-07T18:54:21.949Z,83.07
2022-09-07T18:56:49.903Z,81.70
2022-09-07T18:59:17.983Z,82.12
2022-09-07T19:01:46.245Z,84.00
2022-09-07T19:04:14.615Z,82.56
2022-09-07T19:06:42.888Z,83.26
2022-09-07T19:09:12.111Z,82.42
2022-09-07T19:11:43.710Z,83.34
2022-09-07T19:14:13.888Z,83.78
2022-09-07T19:16:42.107Z,84.95
2022-09-07T19:19:13.004Z,84.82
2022-09-07T19:21:43.193Z,85.61
2022-09-07T19:24:14.223Z,86.78
2022-09-07T19:26:46.504Z,86.95
2022-09-07T19:29:19.251Z,88.04
2022-09-07T19:32:05.049Z,89.14
2022-09-07T19:34:33.395Z,91.25
2022-09-07T19:37:04.361Z,92.38
2022-09-07T19:39:35.472Z,94.43
2022-09-07T19:42:08.029Z,95.04
2022-09-07T19:44:36.077Z,96.85
2022-09-07T19:47:04.127Z,97.88
2022-09-07T19:49:32.492Z,98.94
2022-09-07T19:52:00.425Z,99.38
2022-09-07T19:54:31.497Z,98.78
2022-09-07T19:57:02.779Z,98.86
2022-09-07T19:59:32.284Z,98.08
2022-09-07T20:02:00.726Z,97.33
2022-09-07T20:04:30.982Z,97.71
2022-09-07T20:07:01.331Z,97.84
2022-09-07T20:09:31.970Z,96.79
2022-09-07T20:12:01.741Z,97.13
2022-09-07T20:14:30.315Z,98.21
2022-09-07T20:16:59.840Z,98.01
2022-09-07T20:19:30.560Z,98.75
2022-09-07T20:21:58.554Z,99.02
2022-09-07T20:24:26.936Z,99.90
2022-09-07T20:26:55.287Z,100.00
2022-09-07T20:29:27.627Z,100.00
2022-09-07T20:31:59.843Z,100.00
2022-09-07T20:34:30.392Z,100.00
2022-09-07T20:36:58.652Z,100.00
2022-09-07T20:39:28.937Z,100.00
2022-09-07T20:41:56.958Z,100.00
2022-09-07T20:44:27.650Z,100.00
2022-09-07T20:46:56.066Z,100.00
2022-09-07T20:49:25.628Z,100.00
2022-09-07T20:51:53.851Z,100.00
2022-09-07T20:54:23.307Z,100.00
2022-09-07T20:56:54.408Z,100.00
2022-09-07T20:59:25.417Z,100.00
2022-09-07T21:01:55.662Z,100.00
2022-09-07T21:04:27.379Z,100.00
2022-09-07T21:06:55.422Z,100.00
2022-09-07T21:09:23.499Z,100.00
2022-09-07T21:11:56.346Z,100.00
2022-09-07T21:14:25.207Z,100.00
2022-09-07T21:16:53.369Z,100.00
2022-09-07T21:19:25.296Z,100.00
2022-09-07T21:21:53.235Z,100.00
2022-09-07T21:24:22.748Z,100.00
2022-09-07T21:26:51.794Z,100.00
2022-09-07T21:29:22.866Z,100.00
2022-09-07T21:31:51.008Z,100.00
2022-09-07T21:34:19.000Z,100.00
2022-09-07T21:36:53.788Z,100.00
2022-09-07T21:39:24.223Z,100.00
2022-09-07T21:41:52.273Z,100.00
2022-09-07T21:44:20.458Z,100.00
2022-09-07T21:46:51.359Z,100.00
2022-09-07T21:49:19.438Z,100.00
2022-09-07T21:51:47.533Z,100.00
2022-09-07T21:54:16.780Z,100.00
2022-09-07T21:56:46.881Z,100.00
2022-09-07T21:59:15.167Z,100.00
2022-09-07T22:01:43.531Z,100.00
2022-09-07T22:04:12.043Z,100.00
2022-09-07T22:06:41.028Z,100.00
2022-09-07T22:09:09.113Z,100.00
2022-09-07T22:11:45.305Z,100.00
2022-09-07T22:14:17.186Z,100.00
2022-09-07T22:16:46.250Z,100.00
2022-09-07T22:19:14.547Z,100.00
2022-09-07T22:21:45.642Z,100.00
2022-09-07T22:24:15.166Z,100.00
2022-09-07T22:26:44.669Z,100.00
2022-09-07T22:29:14.222Z,100.00
2022-09-07T22:31:42.608Z,100.00
2022-09-07T22:34:11.613Z,100.00
2022-09-07T22:36:41.703Z,100.00
2022-09-07T22:39:12.982Z,100.00
2022-09-07T22:41:41.620Z,100.00
2022-09-07T22:44:13.936Z,100.00
2022-09-07T22:46:44.317Z,100.00
2022-09-07T22:49:17.065Z,100.00
2022-09-07T22:51:45.435Z,100.00
2022-09-07T22:54:13.847Z,100.00
2022-09-07T22:56:42.005Z,100.00
2022-09-07T22:59:14.189Z,100.00
2022-09-07T23:01:42.700Z,100.00
2022-09-07T23:06:44.310Z,100.00
2022-09-07T23:09:17.635Z,100.00
2022-09-07T23:11:46.752Z,100.00
2022-09-07T23:14:16.676Z,100.00
2022-09-07T23:16:45.483Z,100.00
2022-09-07T23:19:15.207Z,100.00
2022-09-07T23:21:44.930Z,100.00
2022-09-07T23:24:14.620Z,100.00
2022-09-07T23:26:42.646Z,100.00
2022-09-07T23:29:14.243Z,100.00
2022-09-07T23:31:43.072Z,100.00
2022-09-07T23:34:11.351Z,100.00
2022-09-07T23:36:39.374Z,100.00
2022-09-07T23:39:13.712Z,100.00
2022-09-07T23:41:41.705Z,100.00
2022-09-07T23:44:09.983Z,100.00
2022-09-07T23:46:40.589Z,100.00
2022-09-07T23:49:08.695Z,100.00
2022-09-07T23:51:36.608Z,100.00
2022-09-07T23:54:04.845Z,100.00
2022-09-07T23:56:36.220Z,100.00
2022-09-07T23:59:06.700Z,100.00
